Time;durP1;ratioP1;P1;durP2;ratioP2;P2;SDS_P1;SDS_P2;PMS_P1;PMS_P2;Temp;Humidity;BMP_temperature;BMP_pressure;BME280_temperature;BME280_humidity;BME280_pressure;Samples;Min_cycle;Max_cycle;Signal;HPM_P1;HPM_P2
2022/08/17 00:01:15;;;;;;;8.43;6.65;;;;;;;17.20;88.89;99201.57;1753043;80;21036;-62
2022/08/17 00:03:45;;;;;;;10.68;7.50;;;;;;;17.17;88.92;99202.31;1750824;80;21549;-62
2022/08/17 00:06:17;;;;;;;8.15;6.37;;;;;;;17.13;89.15;99200.39;1748705;80;21051;-62
2022/08/17 00:08:51;;;;;;;9.28;7.25;;;;;;;17.12;89.31;99201.37;1750080;80;20978;-62
2022/08/17 00:11:27;;;;;;;10.65;6.72;;;;;;;17.10;89.37;99211.20;1735120;81;21068;-62
2022/08/17 00:13:59;;;;;;;7.60;6.90;;;;;;;17.07;89.50;99222.00;1745264;81;21086;-62
2022/08/17 00:16:33;;;;;;;7.45;6.72;;;;;;;17.06;89.59;99215.07;1744531;80;20974;-62
2022/08/17 00:19:05;;;;;;;8.08;6.75;;;;;;;17.02;89.48;99216.27;1769285;80;21091;-62
2022/08/17 00:21:33;;;;;;;7.12;6.42;;;;;;;17.01;89.66;99217.23;1758298;80;20965;-62
2022/08/17 00:24:01;;;;;;;8.05;6.65;;;;;;;17.00;89.62;99218.22;1741397;82;21099;-62
2022/08/17 00:26:28;;;;;;;9.08;7.60;;;;;;;16.98;89.65;99222.77;1733217;82;21011;-62
2022/08/17 00:28:54;;;;;;;;;;;;;;;16.99;89.76;99224.43;1744267;82;21097;-62
2022/08/17 00:31:22;;;;;;;8.33;7.53;;;;;;;16.97;89.93;99221.94;1732397;82;20122;-62
2022/08/17 00:33:50;;;;;;;10.13;7.60;;;;;;;16.96;89.93;99222.05;1744661;80;20985;-62
2022/08/17 00:36:18;;;;;;;11.57;7.87;;;;;;;16.93;89.82;99227.09;1735924;82;21088;-62
2022/08/17 00:38:45;;;;;;;8.08;7.22;;;;;;;16.91;89.90;99224.22;1735558;82;20993;-62
2022/08/17 00:41:17;;;;;;;11.10;6.95;;;;;;;16.87;89.89;99222.80;1755676;80;21000;-62
2022/08/17 00:43:57;;;;;;;13.15;7.22;;;;;;;16.88;90.11;99227.11;1740364;82;21066;-62
2022/08/17 00:46:35;;;;;;;8.20;7.30;;;;;;;16.89;90.05;99224.84;1735738;82;21050;-62
2022/08/17 00:49:04;;;;;;;6.50;5.87;;;;;;;16.89;90.12;99227.48;1743056;81;21114;-62
2022/08/17 00:51:38;;;;;;;6.87;6.28;;;;;;;16.83;89.94;99228.78;1742403;81;21056;-62
2022/08/17 00:54:13;;;;;;;13.58;6.37;;;;;;;16.74;89.88;99229.02;1749536;80;21108;-62
2022/08/17 00:56:49;;;;;;;9.00;5.78;;;;;;;16.69;89.92;99225.94;1747380;81;21017;-62
2022/08/17 00:59:21;;;;;;;8.13;6.60;;;;;;;16.64;90.09;99235.18;1777366;80;21068;-62
2022/08/17 01:01:49;;;;;;;13.00;6.67;;;;;;;16.61;90.22;99228.35;1777519;79;21511;-62
2022/08/17 01:04:19;;;;;;;10.20;8.00;;;;;;;16.58;90.27;99230.38;1791666;79;20993;-62
2022/08/17 01:06:48;;;;;;;8.55;7.33;;;;;;;16.59;90.46;99234.22;1779503;79;20994;-62
2022/08/17 01:09:17;;;;;;;8.83;7.47;;;;;;;16.62;90.59;99227.38;1762210;80;21009;-62
2022/08/17 01:11:45;;;;;;;11.80;7.22;;;;;;;16.64;90.64;99228.11;1767119;80;20990;-62
2022/08/17 01:14:13;;;;;;;9.50;6.70;;;;;;;16.65;90.57;99227.62;1769859;80;21977;-62
2022/08/17 01:16:40;;;;;;;10.38;7.83;;;;;;;16.62;90.46;99224.75;1770057;80;21148;-62
2022/08/17 01:19:15;;;;;;;7.37;6.40;;;;;;;16.60;90.58;99227.14;1767879;80;21261;-62
2022/08/17 01:22:02;;;;;;;8.90;6.03;;;;;;;16.57;90.61;99226.91;1762635;80;20985;-62
2022/08/17 01:24:30;;;;;;;6.60;5.92;;;;;;;16.56;90.71;99226.08;1776617;80;21490;-62
2022/08/17 01:26:56;;;;;;;6.17;5.58;;;;;;;16.52;90.61;99222.02;1767405;80;21071;-62
2022/08/17 01:29:25;;;;;;;10.45;5.97;;;;;;;16.52;90.67;99224.66;1767827;80;20970;-62
2022/08/17 01:31:56;;;;;;;6.85;6.15;;;;;;;16.49;90.58;99224.05;1765308;80;20986;-62
2022/08/17 01:34:23;;;;;;;7.20;5.55;;;;;;;16.45;90.68;99227.90;1742160;81;21033;-62
2022/08/17 01:36:52;;;;;;;6.62;5.92;;;;;;;16.40;90.53;99230.05;1741403;81;21041;-62
2022/08/17 01:39:38;;;;;;;5.67;5.05;;;;;;;16.31;90.58;99219.28;1768530;79;21209;-62
2022/08/17 01:42:25;;;;;;;7.87;6.40;;;;;;;16.23;91.01;99224.31;1773200;80;20977;-62
2022/08/17 01:45:00;;;;;;;6.45;5.75;;;;;;;16.23;91.01;99224.31;1774237;80;21022;-62
2022/08/17 01:47:27;;;;;;;6.20;5.60;;;;;;;16.27;90.91;99216.55;1780541;80;21540;-62
2022/08/17 01:49:54;;;;;;;6.42;5.75;;;;;;;16.24;90.80;99216.76;1789864;78;21052;-62
2022/08/17 01:52:22;;;;;;;8.78;6.20;;;;;;;16.23;90.82;99216.41;1771609;80;21538;-62
2022/08/17 01:54:50;;;;;;;5.12;4.55;;;;;;;16.25;90.89;99214.50;1749379;81;22343;-62
2022/08/17 01:57:17;;;;;;;5.55;4.50;;;;;;;16.21;90.83;99215.69;1771782;80;21048;-62
2022/08/17 01:59:44;;;;;;;5.60;4.78;;;;;;;16.16;90.80;99209.97;1761154;80;21043;-62
2022/08/17 02:02:10;;;;;;;6.17;4.42;;;;;;;16.13;90.88;99207.55;1759089;80;20954;-62
2022/08/17 02:04:37;;;;;;;5.00;4.22;;;;;;;16.07;90.86;99204.08;1775730;80;21870;-63
2022/08/17 02:07:04;;;;;;;5.95;4.40;;;;;;;16.07;90.91;99209.34;1776497;80;21076;-62
2022/08/17 02:09:31;;;;;;;5.30;4.35;;;;;;;16.03;90.93;99210.56;1768177;80;20946;-62
2022/08/17 02:11:59;;;;;;;;;;;;;;;15.98;90.96;99210.08;1784828;80;21056;-62
2022/08/17 02:14:26;;;;;;;7.22;6.62;;;;;;;15.93;91.18;99213.53;1766385;80;20137;-62
2022/08/17 02:16:53;;;;;;;8.20;7.40;;;;;;;15.89;91.39;99212.46;1765489;80;26678;-62
2022/08/17 02:19:20;;;;;;;15.23;7.53;;;;;;;15.94;91.73;99215.23;1744246;81;20977;-62
2022/08/17 02:21:51;;;;;;;6.25;5.50;;;;;;;15.96;91.97;99215.93;1753278;80;21030;-62
2022/08/17 02:24:28;;;;;;;8.30;5.53;;;;;;;15.99;91.98;99215.69;1781223;79;21091;-62
2022/08/17 02:26:55;;;;;;;6.53;5.87;;;;;;;16.02;91.74;99217.63;1780811;80;20979;-62
2022/08/17 02:29:21;;;;;;;6.60;5.35;;;;;;;16.04;91.70;99217.48;1790789;80;20957;-62
2022/08/17 02:31:48;;;;;;;7.25;6.42;;;;;;;16.04;91.73;99213.54;1783485;80;21535;-62
2022/08/17 02:34:15;;;;;;;8.18;7.12;;;;;;;16.05;91.72;99211.28;1777095;80;21036;-62
2022/08/17 02:36:42;;;;;;;7.55;6.40;;;;;;;16.05;91.80;99212.12;1760933;81;20956;-63
2022/08/17 02:39:11;;;;;;;8.23;5.60;;;;;;;16.02;91.85;99216.77;1760833;81;20969;-63
2022/08/17 02:41:39;;;;;;;8.20;5.12;;;;;;;15.98;91.75;99216.17;1746303;81;21634;-62
2022/08/17 02:44:06;;;;;;;6.05;5.20;;;;;;;15.95;91.67;99220.84;1751437;80;21558;-62
2022/08/17 02:46:33;;;;;;;5.72;5.10;;;;;;;15.89;91.59;99219.04;1775689;80;21119;-63
2022/08/17 02:49:00;;;;;;;8.83;6.30;;;;;;;15.84;91.76;99215.09;1771192;80;20976;-62
2022/08/17 02:51:27;;;;;;;7.30;6.60;;;;;;;15.78;91.93;99212.94;1770838;80;21024;-62
2022/08/17 02:53:53;;;;;;;7.72;6.17;;;;;;;15.77;92.07;99216.53;1771486;79;22414;-62
2022/08/17 02:56:20;;;;;;;9.43;7.00;;;;;;;15.76;92.07;99214.35;1774118;80;20947;-62
2022/08/17 02:58:47;;;;;;;8.93;6.33;;;;;;;15.74;91.95;99222.00;1773390;79;20935;-62
2022/08/17 03:01:13;;;;;;;10.97;6.03;;;;;;;15.68;91.87;99215.42;1764983;80;21677;-62
2022/08/17 03:03:41;;;;;;;6.92;5.40;;;;;;;15.64;91.81;99228.43;1769118;79;20953;-62
2022/08/17 03:06:08;;;;;;;;;;;;;;;15.63;91.99;99220.19;1769943;80;22465;-62
2022/08/17 03:08:36;;;;;;;;;;;;;;;15.64;92.34;99216.59;1780068;80;20171;-62
2022/08/17 03:11:02;;;;;;;11.33;7.58;;;;;;;15.69;92.74;99218.91;1772195;80;20210;-62
2022/08/17 03:13:29;;;;;;;7.70;6.80;;;;;;;15.73;92.81;99215.91;1766883;80;21009;-63
2022/08/17 03:15:56;;;;;;;6.65;5.90;;;;;;;15.77;92.70;99223.95;1767975;79;21498;-62
2022/08/17 03:18:24;;;;;;;8.63;6.22;;;;;;;15.76;92.35;99232.78;1770175;80;21438;-63
2022/08/17 03:20:55;;;;;;;10.60;7.53;;;;;;;15.72;92.06;99237.93;1771755;79;20974;-62
2022/08/17 03:23:23;;;;;;;7.37;6.67;;;;;;;15.71;92.36;99227.05;1773667;80;21563;-61
2022/08/17 03:25:50;;;;;;;12.78;7.78;;;;;;;15.74;92.55;99222.87;1775928;79;21606;-61
2022/08/17 03:28:17;;;;;;;8.78;7.92;;;;;;;15.76;92.54;99220.10;1771696;80;20981;-61
2022/08/17 03:30:43;;;;;;;8.38;7.58;;;;;;;15.79;92.73;99220.70;1777150;80;21001;-61
2022/08/17 03:33:11;;;;;;;8.43;7.47;;;;;;;15.87;92.81;99218.80;1769114;80;21017;-61
2022/08/17 03:35:39;;;;;;;8.05;7.22;;;;;;;15.87;92.81;99218.80;1774678;80;21509;-61
2022/08/17 03:38:08;;;;;;;8.83;6.53;;;;;;;15.87;92.62;99220.95;1763125;80;21097;-62
2022/08/17 03:40:37;;;;;;;9.05;6.58;;;;;;;15.85;92.48;99221.56;1770583;80;21016;-61
2022/08/17 03:43:08;;;;;;;9.90;6.70;;;;;;;15.89;92.74;99219.04;1764878;80;22323;-61
2022/08/17 03:56:48;;;;;;;9.93;5.37;;;;;;;15.93;92.07;99229.33;1732634;81;21430;-63
2022/08/17 03:59:19;;;;;;;13.28;4.85;;;;;;;15.86;92.24;99229.81;1721888;82;21056;-63
2022/08/17 04:01:50;;;;;;;11.25;5.85;;;;;;;15.79;92.03;99231.22;1737440;81;20948;-63
2022/08/17 04:04:18;;;;;;;6.62;5.75;;;;;;;15.71;92.06;99228.38;1739872;81;21041;-63
2022/08/17 04:06:46;;;;;;;7.22;6.10;;;;;;;15.70;92.28;99229.30;1734526;81;21071;-63
2022/08/17 04:09:12;;;;;;;9.68;6.37;;;;;;;15.94;93.29;99228.40;1736773;81;21070;-63
2022/08/17 04:11:40;;;;;;;10.08;6.10;;;;;;;16.43;93.78;99225.38;1739309;81;21648;-63
2022/08/17 04:14:07;;;;;;;6.33;5.72;;;;;;;17.05;93.70;99231.84;1713113;82;21586;-63
2022/08/17 04:16:35;;;;;;;14.60;6.00;;;;;;;17.73;93.24;99228.85;1740917;81;20933;-63
2022/08/17 04:19:04;;;;;;;8.25;6.00;;;;;;;18.32;92.67;99226.89;1733979;81;21108;-63
2022/08/17 04:21:31;;;;;;;7.25;5.40;;;;;;;18.64;91.60;99232.47;1735126;81;21605;-63
2022/08/17 04:23:58;;;;;;;12.33;6.03;;;;;;;18.66;91.15;99238.47;1733222;81;21557;-63
2022/08/17 04:26:24;;;;;;;15.03;6.78;;;;;;;18.76;91.73;99244.63;1737525;81;21067;-63
2022/08/17 04:28:51;;;;;;;13.85;5.75;;;;;;;19.29;92.15;99245.58;1734528;81;21074;-64
2022/08/17 04:31:17;;;;;;;9.65;6.42;;;;;;;19.78;90.83;99253.02;1732861;81;21440;-63
2022/08/17 04:33:44;;;;;;;9.03;6.15;;;;;;;19.70;89.01;99260.84;1737685;81;22227;-63
2022/08/17 04:36:14;;;;;;;9.93;6.58;;;;;;;19.72;89.86;99261.55;1743382;81;20918;-64
2022/08/17 04:38:44;;;;;;;7.30;5.80;;;;;;;19.81;89.37;99263.33;1739586;81;21443;-63
2022/08/17 04:43:59;;;;;;;6.53;5.83;;;;;;;21.38;92.39;99262.92;1733514;82;21029;-63
2022/08/17 04:46:33;;;;;;;6.83;6.22;;;;;;;22.30;90.91;99250.95;1701310;83;21162;-64
2022/08/17 04:49:06;;;;;;;8.20;6.55;;;;;;;22.82;89.06;99257.44;1738779;81;21097;-64
2022/08/17 04:51:38;;;;;;;12.53;6.17;;;;;;;23.43;89.76;99256.23;1703732;83;21088;-63
2022/08/17 04:54:12;;;;;;;8.25;6.25;;;;;;;23.95;89.04;99263.06;1701198;82;21667;-63
2022/08/17 04:56:40;;;;;;;9.33;6.45;;;;;;;24.38;88.44;99257.44;1692292;82;21047;-63
2022/08/17 04:59:15;;;;;;;11.15;6.53;;;;;;;24.78;87.70;99265.27;1720245;83;21861;-63
2022/08/17 05:01:45;;;;;;;10.65;7.00;;;;;;;25.34;87.88;99265.62;1711730;82;21575;-63
2022/08/17 05:04:20;;;;;;;10.05;6.65;;;;;;;25.76;86.34;99257.58;1722963;82;21002;-63
2022/08/17 05:06:48;;;;;;;9.08;6.28;;;;;;;26.03;85.31;99255.67;1733331;81;22034;-64
2022/08/17 05:09:16;;;;;;;9.78;6.37;;;;;;;26.80;86.03;99258.44;1698305;83;21000;-64
2022/08/17 05:11:45;;;;;;;10.72;5.65;;;;;;;27.18;83.28;99258.27;1700645;83;21875;-65
2022/08/17 05:14:12;;;;;;;9.63;6.20;;;;;;;26.85;81.55;99258.70;1703100;83;21022;-64
2022/08/17 05:16:39;;;;;;;11.78;6.50;;;;;;;27.17;83.56;99261.47;1701596;83;21417;-65
2022/08/17 05:19:06;;;;;;;18.12;6.50;;;;;;;27.95;83.48;99267.39;1697761;83;21072;-64
2022/08/17 05:21:32;;;;;;;14.07;6.60;;;;;;;28.32;82.13;99272.39;1722652;83;20994;-65
2022/08/17 05:23:59;;;;;;;11.97;6.35;;;;;;;28.30;80.27;99269.06;1726123;82;21693;-64
2022/08/17 05:26:27;;;;;;;7.17;5.90;;;;;;;28.49;80.06;99274.27;1709347;82;21016;-65
2022/08/17 05:28:56;;;;;;;10.05;5.92;;;;;;;28.94;81.04;99269.78;1696957;83;21578;-65
2022/08/17 05:31:24;;;;;;;7.67;5.15;;;;;;;29.76;81.03;99268.69;1703098;83;21072;-65
2022/08/17 05:33:52;;;;;;;9.85;5.50;;;;;;;30.17;78.01;99274.86;1735063;81;20966;-65
2022/08/17 05:36:19;;;;;;;6.72;5.53;;;;;;;29.99;76.40;99270.93;1699523;84;21855;-65
2022/08/17 05:38:46;;;;;;;10.40;5.25;;;;;;;30.14;77.32;99273.91;1694266;83;20977;-65
2022/08/17 05:41:12;;;;;;;6.00;5.17;;;;;;;30.25;75.39;99274.63;1700434;83;21676;-65
2022/08/17 05:43:41;;;;;;;5.17;4.67;;;;;;;30.25;75.05;99275.48;1700430;83;21020;-66
2022/08/17 05:46:24;;;;;;;5.45;4.97;;;;;;;30.58;75.82;99275.06;1695164;84;21040;-65
2022/08/17 05:48:55;;;;;;;6.58;5.22;;;;;;;31.28;75.86;99277.30;1699364;83;23224;-66
2022/08/17 05:51:52;;;;;;;5.83;4.97;;;;;;;31.81;74.79;99276.91;1689290;84;21080;-65
2022/08/17 05:54:52;;;;;;;5.72;5.22;;;;;;;31.89;72.11;99276.63;1704089;84;20993;-63
2022/08/17 05:57:47;;;;;;;5.25;4.75;;;;;;;31.39;70.34;99273.93;1733196;82;21131;-64
2022/08/17 06:00:54;;;;;;;5.25;4.67;;;;;;;30.72;68.32;99275.30;1734123;81;20930;-64
2022/08/17 06:03:35;;;;;;;5.40;4.90;;;;;;;30.27;68.60;99282.81;1739516;81;21557;-65
2022/08/17 06:06:31;;;;;;;4.85;4.37;;;;;;;30.29;68.00;99285.31;1733495;81;20946;-64
2022/08/17 06:09:36;;;;;;;5.03;4.50;;;;;;;30.22;67.72;99293.91;1733894;81;20961;-65
2022/08/17 06:12:29;;;;;;;5.90;5.10;;;;;;;29.85;67.19;99290.30;1648432;87;22481;-64
2022/08/17 06:15:18;;;;;;;5.83;4.90;;;;;;;29.82;66.62;99285.86;1676726;84;21052;-63
2022/08/17 06:17:45;;;;;;;5.10;4.60;;;;;;;29.79;66.18;99292.48;1676593;84;22448;-65
2022/08/17 06:20:15;;;;;;;6.90;4.90;;;;;;;29.69;65.21;99296.62;1675331;84;21600;-65
2022/08/17 06:22:46;;;;;;;5.67;5.17;;;;;;;29.90;66.20;99299.11;1674896;84;21109;-64
2022/08/17 06:25:36;;;;;;;5.42;4.65;;;;;;;30.13;65.23;99305.91;1688538;84;21051;-65
2022/08/17 06:28:07;;;;;;;5.35;4.85;;;;;;;30.17;64.68;99296.40;1676759;84;22039;-66
2022/08/17 06:30:42;;;;;;;7.00;5.55;;;;;;;30.13;63.82;99301.34;1666147;84;21277;-65
2022/08/17 06:33:14;;;;;;;5.70;5.13;;;;;;;30.10;63.80;99303.94;1671983;84;21013;-66
2022/08/17 06:35:49;;;;;;;5.50;5.00;;;;;;;30.34;63.78;99301.67;1675374;84;21140;-65
2022/08/17 06:38:48;;;;;;;8.33;5.85;;;;;;;30.61;63.91;99302.92;1677166;85;21032;-65
2022/08/17 06:41:30;;;;;;;5.47;4.97;;;;;;;30.82;62.55;99302.67;1674311;84;21063;-65
2022/08/17 06:44:20;;;;;;;4.83;4.12;;;;;;;30.90;62.72;99307.81;1676868;85;21114;-64
2022/08/17 06:47:25;;;;;;;4.37;3.90;;;;;;;30.75;61.53;99301.82;1681073;84;21540;-64
2022/08/17 06:50:14;;;;;;;5.60;4.12;;;;;;;30.72;60.70;99303.59;1655216;85;20987;-64
2022/08/17 06:53:05;;;;;;;4.40;4.03;;;;;;;30.30;60.52;99304.45;1686651;83;21144;-62
2022/08/17 06:55:48;;;;;;;5.50;4.03;;;;;;;30.00;59.82;99306.25;1657895;85;21041;-64
2022/08/17 06:58:19;;;;;;;4.78;3.05;;;;;;;29.88;59.65;99309.24;1712196;82;21076;-62
2022/08/17 07:00:50;;;;;;;4.58;4.05;;;;;;;29.59;58.53;99313.97;1683741;83;21240;-62
2022/08/17 07:03:42;;;;;;;4.20;3.80;;;;;;;29.32;59.68;99312.27;1687390;83;21008;-64
2022/08/17 07:06:22;;;;;;;4.33;3.90;;;;;;;29.05;58.71;99306.85;1680461;84;21021;-65
2022/08/17 07:09:09;;;;;;;4.55;3.83;;;;;;;29.22;59.21;99316.20;1680051;83;21937;-64
2022/08/17 07:11:53;;;;;;;6.15;4.10;;;;;;;29.25;58.92;99311.45;1676547;83;21105;-64
2022/08/17 07:14:46;;;;;;;4.45;3.92;;;;;;;29.05;57.75;99308.72;1684569;83;21064;-64
2022/08/17 07:17:17;;;;;;;5.70;4.17;;;;;;;28.77;58.18;99311.78;1651698;86;21032;-64
2022/08/17 07:19:47;;;;;;;7.92;4.47;;;;;;;28.91;58.86;99315.87;1682568;84;21193;-64
2022/08/17 07:22:46;;;;;;;4.42;4.03;;;;;;;29.01;58.42;99313.61;1682544;84;21097;-64
2022/08/17 07:25:17;;;;;;;5.65;4.47;;;;;;;28.74;58.01;99316.22;1711962;83;21095;-64
2022/08/17 07:27:51;;;;;;;4.85;3.75;;;;;;;28.30;58.26;99317.39;1751144;81;21087;-63
2022/08/17 07:30:30;;;;;;;3.75;3.45;;;;;;;27.84;57.75;99315.22;1745912;81;21055;-63
2022/08/17 07:33:08;;;;;;;4.17;3.77;;;;;;;27.31;57.11;99312.02;1747962;81;21007;-64
2022/08/17 07:35:40;;;;;;;3.95;3.52;;;;;;;26.71;57.65;99315.81;1755807;81;20968;-64
2022/08/17 07:39:04;;;;;;;4.87;3.87;;;;;;;26.31;58.37;99312.57;1804860;79;22774;-63
2022/08/17 07:41:38;;;;;;;6.65;4.28;;;;;;;26.23;58.65;99315.33;1772454;80;20942;-63
2022/08/17 07:44:14;;;;;;;5.60;5.10;;;;;;;26.17;58.91;99322.76;1769584;80;21118;-63
2022/08/17 07:49:45;;;;;;;5.92;5.42;;;;;;;26.14;59.63;99316.44;1766853;80;21009;-64
2022/08/17 07:52:29;;;;;;;6.50;5.90;;;;;;;26.11;59.60;99323.81;1771371;80;21066;-64
2022/08/17 07:54:56;;;;;;;7.12;6.10;;;;;;;26.21;60.19;99313.34;1774287;80;21044;-64
2022/08/17 07:57:33;;;;;;;6.70;6.10;;;;;;;26.24;60.04;99325.02;1772737;80;21084;-64
2022/08/17 08:00:07;;;;;;;5.78;5.28;;;;;;;26.35;60.64;99317.86;1775421;80;21072;-64
2022/08/17 08:02:44;;;;;;;6.92;6.25;;;;;;;26.43;60.24;99315.61;1770965;80;21531;-64
2022/08/17 08:05:27;;;;;;;6.75;5.92;;;;;;;26.26;60.74;99314.96;1760298;80;20987;-64
2022/08/17 08:08:04;;;;;;;6.70;5.97;;;;;;;26.25;60.89;99318.66;1770421;80;20997;-63
2022/08/17 08:10:45;;;;;;;6.12;5.10;;;;;;;26.47;61.36;99322.28;1777707;80;21084;-63
2022/08/17 08:13:23;;;;;;;6.30;5.70;;;;;;;26.44;61.18;99330.65;1747770;79;21636;-65
2022/08/17 08:15:54;;;;;;;8.45;5.92;;;;;;;26.39;61.14;99337.91;1768367;79;20954;-63
2022/08/17 08:18:29;;;;;;;5.87;5.33;;;;;;;26.22;61.12;99333.75;1771742;80;21475;-63
2022/08/17 08:21:07;;;;;;;6.50;5.83;;;;;;;26.23;61.23;99342.09;1767486;80;21052;-63
2022/08/17 08:23:47;;;;;;;5.55;4.97;;;;;;;26.15;61.39;99343.00;1774316;80;21156;-63
2022/08/17 08:26:40;;;;;;;6.03;5.08;;;;;;;26.22;61.69;99341.27;1620764;86;21040;-63
2022/08/17 08:29:34;;;;;;;5.55;5.05;;;;;;;26.60;62.24;99335.02;1630154;86;21040;-62
2022/08/17 08:32:47;;;;;;;6.67;5.55;;;;;;;26.76;61.32;99340.19;1620942;86;21028;-63
2022/08/17 08:35:44;;;;;;;7.20;5.87;;;;;;;26.71;60.66;99342.59;1646998;85;21290;-62
2022/08/17 08:38:31;;;;;;;7.33;6.50;;;;;;;26.58;61.24;99347.77;1629914;86;21104;-63
2022/08/17 08:41:39;;;;;;;6.75;6.10;;;;;;;26.53;61.01;99349.16;1632397;86;21550;-63
2022/08/17 08:44:28;;;;;;;6.70;6.10;;;;;;;26.43;61.54;99344.55;1596316;88;21120;-63
2022/08/17 08:47:06;;;;;;;7.72;6.12;;;;;;;26.47;61.13;99347.19;1591118;88;21088;-63
2022/08/17 08:50:16;;;;;;;7.42;5.92;;;;;;;26.33;61.26;99342.66;1591823;88;21057;-62
2022/08/17 08:53:23;;;;;;;6.60;5.92;;;;;;;26.26;60.75;99342.55;1587443;88;21474;-63
2022/08/17 08:56:10;;;;;;;6.55;5.87;;;;;;;26.31;61.35;99342.01;1620541;87;21058;-63
2022/08/17 08:59:08;;;;;;;8.30;6.75;;;;;;;26.44;61.25;99349.39;1619105;87;21052;-63
2022/08/17 09:01:57;;;;;;;5.75;5.22;;;;;;;26.51;60.92;99347.16;1617710;87;21054;-61
2022/08/17 09:04:35;;;;;;;6.33;5.65;;;;;;;26.41;60.50;99353.29;1609711;86;21060;-61
2022/08/17 09:07:07;;;;;;;5.12;4.72;;;;;;;26.38;59.88;99345.59;1588372;88;21616;-63
2022/08/17 09:10:00;;;;;;;6.85;5.75;;;;;;;26.32;60.03;99363.73;1609897;87;21009;-62
2022/08/17 09:13:05;;;;;;;6.78;6.10;;;;;;;26.22;59.66;99357.83;1623061;87;21028;-61
2022/08/17 09:16:02;;;;;;;8.40;5.53;;;;;;;26.34;60.26;99368.41;1625276;87;21092;-62
2022/08/17 09:18:38;;;;;;;6.33;5.83;;;;;;;26.51;60.56;99355.20;1612875;87;20998;-61
2022/08/17 09:21:17;;;;;;;5.83;5.30;;;;;;;26.64;60.20;99350.55;1609436;87;21523;-61
2022/08/17 09:23:58;;;;;;;6.17;5.58;;;;;;;26.69;59.84;99356.67;1605023;87;21036;-62
2022/08/17 09:26:49;;;;;;;5.95;5.35;;;;;;;26.72;59.09;99353.61;1627439;86;21002;-62
2022/08/17 09:29:23;;;;;;;6.50;5.90;;;;;;;26.68;59.51;99357.18;1622167;86;20983;-61
2022/08/17 09:31:57;;;;;;;6.42;5.53;;;;;;;26.73;59.64;99356.63;1621873;86;21137;-61
2022/08/17 09:34:41;;;;;;;6.15;5.55;;;;;;;26.70;59.87;99352.48;1590960;88;21133;-62
2022/08/17 09:37:48;;;;;;;6.10;5.47;;;;;;;26.99;60.44;99346.24;1619720;87;21029;-62
2022/08/17 09:40:55;;;;;;;7.67;5.42;;;;;;;27.15;59.72;99346.54;1654432;85;21116;-62
2022/08/17 09:43:49;;;;;;;7.45;5.08;;;;;;;27.11;58.72;99353.80;1650348;85;21595;-61
2022/08/17 09:46:40;;;;;;;6.50;5.53;;;;;;;27.08;59.30;99348.81;1666085;85;20985;-62
2022/08/17 09:49:30;;;;;;;6.45;5.20;;;;;;;27.18;59.17;99352.06;1666577;85;21254;-62
2022/08/17 09:52:20;;;;;;;6.92;5.40;;;;;;;27.33;59.12;99350.16;1647091;85;21052;-62
2022/08/17 09:54:50;;;;;;;5.85;5.28;;;;;;;27.41;58.75;99355.41;1652173;85;21637;-61
2022/08/17 09:57:46;;;;;;;5.42;4.92;;;;;;;27.35;59.11;99352.15;1662015;85;20973;-62
2022/08/17 10:00:26;;;;;;;;;;;;;;;27.47;58.06;99352.98;1668224;85;21048;-62
2022/08/17 10:03:15;;;;;;;7.15;5.45;;;;;;;27.37;57.76;99351.97;1683552;84;21898;-63
2022/08/17 10:05:47;;;;;;;7.05;5.35;;;;;;;27.24;58.30;99347.28;1679022;84;21069;-62
2022/08/17 10:08:34;;;;;;;5.60;5.08;;;;;;;27.31;57.98;99353.56;1677668;84;21069;-62
2022/08/17 10:12:14;;;;;;;6.33;5.72;;;;;;;27.20;57.82;99350.04;1686947;84;21012;-62
2022/08/17 10:14:12;;;;;;;6.22;5.70;;;;;;;27.13;56.73;99357.12;1685482;84;21570;-61
2022/08/17 10:16:59;;;;;;;6.17;5.58;;;;;;;27.09;57.38;99349.16;1687794;84;21476;-62
2022/08/17 10:19:55;;;;;;;6.22;5.30;;;;;;;27.22;57.89;99353.34;1609633;88;21121;-63
2022/08/17 10:28:11;;;;;;;6.47;5.87;;;;;;;27.44;57.63;99353.68;1568230;90;21118;-61
2022/08/17 10:30:46;;;;;;;8.05;5.50;;;;;;;27.45;57.16;99350.52;1552957;90;21452;-62
2022/08/17 10:33:23;;;;;;;8.70;6.33;;;;;;;27.45;57.10;99350.52;1556568;91;21170;-60
2022/08/17 10:36:04;;;;;;;5.67;5.28;;;;;;;27.53;57.37;99346.37;1554601;91;21091;-62
2022/08/17 10:38:48;;;;;;;6.85;5.67;;;;;;;27.52;57.03;99354.08;1540805;92;21109;-63
2022/08/17 10:41:32;;;;;;;6.45;5.85;;;;;;;27.44;55.83;99360.38;1571703;89;21637;-63
2022/08/17 10:47:13;;;;;;;8.48;5.85;;;;;;;27.38;57.05;99350.42;1595828;88;21090;-62
2022/08/17 10:49:52;;;;;;;7.47;6.72;;;;;;;27.51;57.11;99354.28;1615575;87;21112;-62
2022/08/17 10:52:31;;;;;;;7.62;6.92;;;;;;;27.54;56.35;99356.58;1613862;87;21032;-62
2022/08/17 10:55:09;;;;;;;7.83;5.87;;;;;;;27.29;56.52;99350.75;1614186;87;21092;-62
2022/08/17 10:57:41;;;;;;;7.40;6.25;;;;;;;27.37;56.76;99342.08;1651898;85;22501;-62
2022/08/17 11:00:16;;;;;;;6.47;5.87;;;;;;;27.36;56.75;99344.45;1651555;85;21523;-62
2022/08/17 11:02:54;;;;;;;6.12;5.53;;;;;;;27.47;56.76;99344.94;1661017;85;21055;-62
2022/08/17 11:05:52;;;;;;;8.48;6.45;;;;;;;27.49;56.22;99345.59;1649287;84;21046;-63
2022/08/17 11:08:44;;;;;;;7.30;6.58;;;;;;;27.42;55.21;99347.70;1656794;84;21059;-63
2022/08/17 11:11:37;;;;;;;9.85;6.97;;;;;;;27.36;56.45;99341.77;1647742;84;21307;-62
2022/08/17 11:14:18;;;;;;;7.62;6.97;;;;;;;27.53;56.52;99344.17;1655701;85;21019;-62
2022/08/17 11:17:11;;;;;;;7.20;6.47;;;;;;;27.64;56.16;99348.54;1661420;85;21048;-61
2022/08/17 11:20:07;;;;;;;7.37;6.70;;;;;;;27.62;56.43;99355.11;1622292;86;21094;-64
2022/08/17 11:22:59;;;;;;;8.45;7.50;;;;;;;27.74;56.75;99344.18;1643141;85;21812;-62
2022/08/17 11:25:40;;;;;;;8.08;7.28;;;;;;;28.00;56.77;99359.70;1647729;85;21572;-64
2022/08/17 11:28:34;;;;;;;8.55;6.78;;;;;;;27.99;56.79;99349.17;1647127;85;21143;-61
2022/08/17 11:31:30;;;;;;;7.30;6.60;;;;;;;28.18;56.98;99345.81;1650019;86;21516;-61
2022/08/17 11:34:20;;;;;;;8.13;7.10;;;;;;;28.27;55.95;99355.36;1646789;86;20966;-62
2022/08/17 11:37:07;;;;;;;9.53;7.33;;;;;;;28.19;56.46;99350.14;1612052;87;21095;-63
2022/08/17 11:39:54;;;;;;;9.15;8.25;;;;;;;28.29;56.50;99350.64;1642438;85;22130;-62
2022/08/17 11:42:59;;;;;;;7.87;7.10;;;;;;;28.41;55.73;99342.03;1636750;87;21017;-62
2022/08/17 11:45:40;;;;;;;7.95;7.15;;;;;;;28.15;56.39;99346.20;1643836;86;21034;-62
2022/08/17 11:51:54;;;;;;;8.95;7.22;;;;;;;27.77;56.52;99345.65;1646861;85;21056;-63
2022/08/17 11:54:46;;;;;;;9.73;7.90;;;;;;;27.53;56.78;99345.03;1634719;85;21476;-63
2022/08/17 11:57:44;;;;;;;8.30;7.17;;;;;;;27.41;56.87;99351.90;1628576;87;20978;-63
2022/08/17 12:00:48;;;;;;;9.08;7.37;;;;;;;27.49;57.61;99350.95;1624261;86;21100;-63
2022/08/17 12:03:25;;;;;;;11.08;7.83;;;;;;;27.94;57.62;99356.97;1621052;87;21064;-61
2022/08/17 12:06:18;;;;;;;8.38;7.58;;;;;;;27.91;57.30;99360.04;1635941;86;21531;-61
2022/08/17 12:08:59;;;;;;;7.85;7.15;;;;;;;27.65;57.28;99362.77;1650553;85;21461;-62
2022/08/17 12:11:51;;;;;;;7.90;7.20;;;;;;;27.35;57.61;99356.17;1640867;85;21032;-62
2022/08/17 12:14:25;;;;;;;9.50;7.12;;;;;;;27.35;57.91;99350.81;1646651;86;21055;-62
2022/08/17 12:17:08;;;;;;;8.65;7.75;;;;;;;27.64;58.40;99353.91;1640441;85;20998;-63
2022/08/17 12:19:38;;;;;;;8.85;6.90;;;;;;;27.99;58.35;99346.49;1644594;85;21021;-63
2022/08/17 12:22:13;;;;;;;8.55;7.75;;;;;;;27.85;58.18;99353.08;1644333;85;21089;-62
2022/08/17 12:25:03;;;;;;;8.68;7.58;;;;;;;27.52;58.26;99363.46;1642200;85;22079;-63
2022/08/17 12:27:34;;;;;;;8.20;7.35;;;;;;;27.08;58.92;99359.53;1640879;85;21565;-64
2022/08/17 12:30:12;;;;;;;8.95;8.03;;;;;;;26.68;59.15;99364.39;1638722;85;21117;-62
2022/08/17 12:32:46;;;;;;;7.97;7.28;;;;;;;26.61;59.22;99368.80;1596076;88;21048;-63
2022/08/17 12:35:32;;;;;;;8.40;7.35;;;;;;;26.50;59.57;99370.09;1639919;86;21163;-63
2022/08/17 12:38:00;;;;;;;9.33;7.67;;;;;;;26.39;60.27;99380.73;1621997;86;21109;-62
2022/08/17 12:43:22;;;;;;;11.15;6.97;;;;;;;26.15;60.42;99378.29;1623644;87;21036;-62
2022/08/17 12:45:59;;;;;;;8.45;7.60;;;;;;;26.41;60.90;99377.38;1623881;88;21030;-62
2022/08/17 12:48:30;;;;;;;9.45;6.78;;;;;;;26.77;60.73;99377.52;1639449;87;21151;-62
2022/08/17 12:51:02;;;;;;;8.28;7.30;;;;;;;27.01;60.75;99378.22;1595895;88;21180;-61
2022/08/17 12:53:34;;;;;;;10.85;7.45;;;;;;;27.04;60.58;99369.80;1624457;87;21017;-61